ADDS METAR Data INFO
IDs: Format: Raw Decoded Include TAF

Data at: 2331 UTC 15 Dec 2017

KDAW 152251Z AUTO 00000KT 10SM OVC080 M06/M12 A2988 RMK AO2 SLP120 T10561122
KDAW 152151Z AUTO 00000KT 10SM OVC100 M05/M12 A2990 RMK AO2 SLP129 T10501122
KDAW 152051Z AUTO 00000KT 10SM BKN120 M04/M13 A2993 RMK AO2 SLP137 T10441128 56011
KDAW 151951Z AUTO 00000KT 10SM FEW120 M04/M13 A2994 RMK AO2 SLP141 T10441133
KDAW 151851Z AUTO 00000KT 10SM CLR M04/M13 A2995 RMK AO2 SLP143 T10441133
KDAW 151751Z AUTO VRB03KT 10SM CLR M05/M14 A2996 RMK AO2 SLP148 T10501144 11050 21144 58028
KDAW 151651Z AUTO VRB04KT 10SM CLR M06/M14 A2999 RMK AO2 SLP160 T10561144
KDAW 151551Z AUTO VRB04KT 10SM CLR M07/M14 A3003 RMK AO2 SLP172 T10671144
KDAW 151451Z AUTO 00000KT 10SM CLR M08/M16 A3005 RMK AO2 SLP178 T10831156 53014
KDAW 151351Z AUTO VRB04KT 10SM CLR M09/M16 A3003 RMK AO2 SLP173 T10941161
KDAW 151251Z AUTO 24004KT 10SM CLR M13/M17 A3002 RMK AO2 SLP168 T11331167
KDAW 151151Z AUTO 21003KT 10SM CLR M14/M17 A3000 RMK AO2 SLP163 T11391172 11106 21139 51008
KDAW 151051Z AUTO 29005KT 10SM CLR M12/M17 A2999 RMK AO2 SLP160 T11171172
KDAW 150951Z AUTO 00000KT 10SM CLR M12/M17 A2999 RMK AO2 SLP160 T11221172
KDAW 150851Z AUTO 27005KT 10SM CLR M12/M17 A2998 RMK AO2 SLP155 T11171172 51013
KDAW 150751Z AUTO VRB04KT 10SM CLR M11/M17 A2998 RMK AO2 SLP153 T11111172
KDAW 150651Z AUTO VRB04KT 10SM CLR M11/M18 A2995 RMK AO2 SLP144 T11111178
KDAW 150551Z AUTO VRB05KT 10SM CLR M11/M18 A2994 RMK AO2 SLP140 T11061183 11078 21117 51016
KDAW 150451Z AUTO VRB04KT 10SM CLR M11/M19 A2993 RMK AO2 SLP136 T11111189 410441117
KDAW 150351Z AUTO 29004KT 10SM CLR M11/M19 A2992 RMK AO2 SLP134 T11061194
KDAW 150251Z AUTO 30003KT 10SM CLR M10/M19 A2989 RMK AO2 SLP125 T11001194 51031
KDAW 150151Z AUTO VRB04KT 10SM CLR M09/M19 A2987 RMK AO2 SLP115 T10891194
KDAW 150051Z AUTO VRB03KT 10SM CLR M09/M18 A2983 RMK AO2 SLP106 T10891183
KDAW 142351Z AUTO VRB03KT 10SM CLR M08/M18 A2980 RMK AO2 SLP093 T10781178 11044 21078 51039
KDAW 142251Z AUTO VRB05KT 10SM CLR M08/M17 A2978 RMK AO2 SLP085 T10781167
KDAW 142151Z AUTO VRB04KT 10SM CLR M07/M17 A2973 RMK AO2 SLP071 T10671167
KDAW 142051Z AUTO VRB06G14KT 10SM CLR M06/M17 A2968 RMK AO2 SLP054 T10561167 53030
KDAW 141951Z AUTO 29010G17KT 10SM CLR M05/M16 A2965 RMK AO2 SLP042 T10501161
KDAW 141851Z AUTO 29010G18KT 10SM CLR M05/M16 A2962 RMK AO2 SLP033 T10501161
KDAW 141751Z AUTO 29009G20KT 250V320 10SM CLR M04/M16 A2959 RMK AO2 SLP023 60000 T10441161 11044 21078 53007
KDAW 141651Z AUTO 29007G18KT 250V320 10SM CLR M05/M15 A2958 RMK AO2 SLP019 T10501150
KDAW 141551Z AUTO 30010KT 10SM FEW100 M06/M14 A2958 RMK AO2 SLP018 T10611139
KDAW 141451Z AUTO 31009KT 10SM SCT090 M07/M13 A2957 RMK AO2 SLP016 60000 T10671128 53001
KDAW 141351Z AUTO VRB04KT 10SM OVC100 M07/M12 A2957 RMK AO2 SLP016 T10671117
KDAW 141251Z AUTO 00000KT 10SM OVC048 M08/M12 A2957 RMK AO2 SNB17E36 SLP014 P0000 T10781117
KDAW 141151Z AUTO VRB03KT 10SM OVC065 M08/M12 A2957 RMK AO2 SLP015 7//// T10781117 11078 21094 53014